Time;durP1;ratioP1;P1;durP2;ratioP2;P2;SDS_P1;SDS_P2;PMS_P1;PMS_P2;Temp;Humidity;BMP_temperature;BMP_pressure;BME280_temperature;BME280_humidity;BME280_pressure;Samples;Min_cycle;Max_cycle;Signal;HPM_P1;HPM_P2
2023/10/16 00:02:13;;;;;;;5.77;3.20;;;5.40;82.40;;;;;;5013405;28;20506;-71
2023/10/16 00:04:43;;;;;;;6.17;3.80;;;5.40;82.70;;;;;;5012296;28;20512;-71
2023/10/16 00:07:12;;;;;;;8.73;3.87;;;5.30;82.70;;;;;;5009272;28;20452;-71
2023/10/16 00:09:39;;;;;;;5.23;3.20;;;5.30;82.50;;;;;;5008281;28;20436;-72
2023/10/16 00:12:08;;;;;;;8.33;3.17;;;5.30;82.50;;;;;;5005982;28;20521;-71
2023/10/16 00:14:37;;;;;;;5.10;3.00;;;5.30;82.70;;;;;;5003429;28;20489;-73
2023/10/16 00:17:08;;;;;;;6.10;3.63;;;5.50;82.50;;;;;;5005529;28;20452;-72
2023/10/16 00:19:37;;;;;;;5.07;3.50;;;5.50;82.10;;;;;;5011453;28;20433;-71
2023/10/16 00:22:10;;;;;;;6.27;3.03;;;5.50;81.70;;;;;;5014457;28;20425;-71
2023/10/16 00:24:36;;;;;;;4.00;2.70;;;5.60;81.40;;;;;;5009234;28;20504;-72
2023/10/16 00:27:02;;;;;;;4.90;3.10;;;5.60;81.20;;;;;;4999996;28;20452;-72
2023/10/16 00:29:35;;;;;;;6.80;3.40;;;5.60;80.80;;;;;;5004717;28;20996;-72
2023/10/16 00:32:07;;;;;;;3.80;2.83;;;5.50;80.60;;;;;;5010061;28;20237;-71
2023/10/16 00:34:33;;;;;;;4.60;2.67;;;5.50;80.90;;;;;;5010133;28;20431;-71
2023/10/16 00:37:01;;;;;;;4.00;2.60;;;5.30;80.90;;;;;;5005589;28;20461;-72
2023/10/16 00:39:28;;;;;;;7.33;3.30;;;5.30;81.40;;;;;;5020031;28;20425;-71
2023/10/16 00:41:57;;;;;;;4.77;3.07;;;5.30;81.50;;;;;;5009875;28;20547;-73
2023/10/16 00:44:23;;;;;;;4.70;3.03;;;5.30;81.40;;;;;;5010202;28;20437;-70
2023/10/16 00:46:52;;;;;;;5.47;2.87;;;5.20;81.70;;;;;;5006558;28;20464;-71
2023/10/16 00:49:18;;;;;;;3.57;2.20;;;5.10;81.80;;;;;;5009757;28;20432;-70
2023/10/16 00:51:45;;;;;;;6.03;3.20;;;5.10;82.20;;;;;;5009451;28;20857;-71
2023/10/16 00:54:18;;;;;;;5.20;3.20;;;5.10;82.10;;;;;;5013032;28;20245;-71
2023/10/16 00:56:50;;;;;;;3.93;3.13;;;5.10;82.20;;;;;;5004444;28;21070;-71
2023/10/16 00:59:16;;;;;;;6.97;3.87;;;5.10;82.40;;;;;;5009697;28;20432;-70
2023/10/16 01:01:46;;;;;;;6.30;3.70;;;5.10;82.40;;;;;;5010185;28;20432;-72
2023/10/16 01:04:13;;;;;;;7.33;4.33;;;5.00;82.50;;;;;;5008336;28;20463;-70
2023/10/16 01:06:41;;;;;;;11.53;4.90;;;4.90;82.80;;;;;;5000815;28;20459;-70
2023/10/16 01:09:12;;;;;;;7.23;4.07;;;4.80;83.00;;;;;;5013229;28;20439;-71
2023/10/16 01:11:38;;;;;;;7.60;3.70;;;4.70;83.30;;;;;;5013798;28;20425;-71
2023/10/16 01:14:07;;;;;;;5.10;3.20;;;4.70;83.60;;;;;;5015558;28;21383;-71
2023/10/16 01:16:33;;;;;;;11.87;3.27;;;4.90;84.00;;;;;;5009817;28;20543;-70
2023/10/16 01:19:09;;;;;;;9.87;3.50;;;4.90;83.40;;;;;;5012913;28;20508;-70
2023/10/16 01:21:35;;;;;;;6.30;3.30;;;4.90;83.10;;;;;;5012167;28;20519;-69
2023/10/16 01:24:03;;;;;;;4.30;2.73;;;4.90;83.10;;;;;;5013917;28;20892;-69
2023/10/16 01:26:29;;;;;;;5.40;2.80;;;4.90;82.80;;;;;;5010760;28;20264;-70
2023/10/16 01:28:55;;;;;;;5.20;3.00;;;4.90;82.50;;;;;;5009991;28;20418;-70
2023/10/16 01:31:21;;;;;;;4.23;2.83;;;4.80;82.50;;;;;;5010051;28;20471;-70
2023/10/16 01:33:47;;;;;;;4.30;2.80;;;4.80;82.70;;;;;;5012024;28;20214;-70
2023/10/16 01:36:13;;;;;;;6.17;2.97;;;4.80;82.80;;;;;;5009470;28;20491;-70
2023/10/16 01:38:39;;;;;;;6.97;2.67;;;4.80;82.80;;;;;;5014356;28;20452;-69
2023/10/16 01:41:05;;;;;;;4.33;2.83;;;4.70;82.80;;;;;;5012749;28;20428;-70
2023/10/16 01:43:36;;;;;;;3.53;2.80;;;4.80;83.10;;;;;;5011651;28;20432;-70
2023/10/16 01:46:08;;;;;;;4.00;2.80;;;4.70;83.00;;;;;;5008634;28;20213;-71
2023/10/16 01:48:40;;;;;;;6.80;3.00;;;4.70;83.00;;;;;;5011936;28;20537;-72
2023/10/16 01:51:09;;;;;;;5.80;3.00;;;4.70;83.10;;;;;;5012167;28;20437;-71
2023/10/16 01:53:39;;;;;;;4.90;2.90;;;4.70;83.10;;;;;;5017283;28;20469;-71
2023/10/16 01:56:12;;;;;;;5.10;3.37;;;4.70;83.10;;;;;;5007394;28;20472;-70
2023/10/16 01:58:43;;;;;;;6.87;3.00;;;4.70;83.10;;;;;;5012156;28;21159;-71
2023/10/16 02:01:12;;;;;;;6.33;3.70;;;4.70;83.30;;;;;;5012716;28;20937;-70
2023/10/16 02:03:43;;;;;;;4.73;3.60;;;4.80;83.30;;;;;;5013517;28;20520;-71
2023/10/16 02:06:11;;;;;;;6.77;3.83;;;4.70;83.30;;;;;;5008662;28;21034;-71
2023/10/16 02:08:40;;;;;;;6.10;3.50;;;4.60;83.60;;;;;;5013659;28;20977;-71
2023/10/16 02:11:06;;;;;;;5.63;3.00;;;4.60;83.80;;;;;;5012812;28;20463;-70
2023/10/16 02:13:35;;;;;;;5.43;3.77;;;4.60;84.00;;;;;;5013142;28;20548;-71
2023/10/16 02:16:10;;;;;;;4.87;2.70;;;4.60;84.00;;;;;;5009784;28;20984;-71
2023/10/16 02:18:37;;;;;;;4.60;3.50;;;4.60;84.00;;;;;;5010247;28;20459;-70
2023/10/16 02:21:12;;;;;;;6.23;3.13;;;4.60;84.00;;;;;;5016983;28;20420;-70
2023/10/16 02:23:45;;;;;;;8.70;4.13;;;4.70;83.70;;;;;;5012701;28;20463;-70
2023/10/16 02:26:12;;;;;;;4.40;3.63;;;4.70;83.40;;;;;;5015418;28;20479;-71
2023/10/16 02:28:41;;;;;;;6.10;3.90;;;4.50;83.40;;;;;;5015323;28;20417;-70
2023/10/16 02:31:13;;;;;;;10.73;4.23;;;4.30;83.80;;;;;;5012480;28;20431;-70
2023/10/16 02:33:46;;;;;;;8.03;4.53;;;4.20;84.30;;;;;;5010894;28;20465;-71
2023/10/16 02:36:15;;;;;;;11.10;4.40;;;4.20;84.70;;;;;;5009222;28;20538;-71
2023/10/16 02:38:42;;;;;;;9.30;4.50;;;4.10;85.00;;;;;;5014251;28;20487;-74
2023/10/16 02:41:08;;;;;;;7.23;4.60;;;4.10;85.30;;;;;;5011723;28;20427;-71
2023/10/16 02:43:37;;;;;;;5.83;3.93;;;4.10;85.50;;;;;;5009907;28;20757;-72
2023/10/16 02:46:04;;;;;;;5.30;3.90;;;4.30;85.70;;;;;;5009060;28;20459;-73
2023/10/16 02:48:30;;;;;;;3.83;3.20;;;4.20;85.50;;;;;;5010909;28;20420;-70
2023/10/16 02:50:59;;;;;;;8.33;4.07;;;4.30;85.50;;;;;;5011299;28;20409;-71
2023/10/16 02:53:29;;;;;;;5.57;3.67;;;4.30;85.50;;;;;;5010817;28;20476;-70
2023/10/16 02:56:05;;;;;;;6.93;3.60;;;4.20;85.30;;;;;;5007759;28;20488;-71
2023/10/16 02:58:32;;;;;;;5.50;3.07;;;4.30;85.50;;;;;;5005079;28;20966;-71
2023/10/16 03:01:06;;;;;;;7.53;3.90;;;4.40;85.20;;;;;;5011380;28;20890;-71
2023/10/16 03:03:31;;;;;;;7.27;3.90;;;4.30;84.40;;;;;;5019301;28;20440;-70
2023/10/16 03:05:58;;;;;;;7.67;4.57;;;4.20;84.40;;;;;;5009457;28;20464;-71
2023/10/16 03:08:30;;;;;;;4.77;2.60;;;4.20;84.70;;;;;;5019108;28;20190;-70
2023/10/16 03:10:59;;;;;;;4.33;3.07;;;4.20;84.90;;;;;;5007211;28;20429;-70
2023/10/16 03:13:25;;;;;;;4.17;2.77;;;4.10;84.70;;;;;;5009930;28;20973;-70
2023/10/16 03:16:05;;;;;;;5.40;2.50;;;4.20;84.10;;;;;;5006512;28;20938;-70
2023/10/16 03:18:32;;;;;;;6.00;2.67;;;4.10;83.70;;;;;;5009791;28;20417;-70
2023/10/16 03:21:01;;;;;;;4.47;2.90;;;4.10;83.70;;;;;;5010422;28;20409;-70
2023/10/16 03:23:28;;;;;;;6.33;3.17;;;4.00;83.70;;;;;;5009483;28;20409;-70
2023/10/16 03:25:56;;;;;;;9.03;4.20;;;3.90;84.00;;;;;;5003065;28;20472;-70
2023/10/16 03:28:21;;;;;;;7.33;4.17;;;3.90;84.30;;;;;;5007705;28;20422;-70
2023/10/16 03:30:47;;;;;;;8.27;4.33;;;3.90;84.70;;;;;;5004666;28;20433;-70
2023/10/16 03:33:16;;;;;;;7.13;4.03;;;3.80;85.30;;;;;;5011421;28;20590;-70
2023/10/16 03:35:45;;;;;;;6.47;3.80;;;3.70;85.60;;;;;;5005431;28;20493;-70
2023/10/16 03:38:11;;;;;;;7.43;4.27;;;3.70;86.00;;;;;;5012716;28;20420;-71
2023/10/16 03:40:37;;;;;;;8.87;5.03;;;3.80;86.20;;;;;;5011722;28;20475;-71
2023/10/16 03:43:03;;;;;;;6.73;4.47;;;3.90;86.30;;;;;;5011195;28;20435;-72
2023/10/16 03:45:28;;;;;;;10.43;4.73;;;3.90;86.30;;;;;;5007943;28;20473;-73
2023/10/16 03:47:58;;;;;;;9.47;4.67;;;4.00;86.30;;;;;;5010655;28;20190;-71
2023/10/16 03:50:34;;;;;;;9.67;5.60;;;3.90;86.30;;;;;;5013444;28;20194;-72
2023/10/16 03:53:01;;;;;;;8.57;5.37;;;3.80;86.20;;;;;;5007509;28;20468;-73
2023/10/16 03:55:28;;;;;;;7.33;4.50;;;3.80;86.30;;;;;;5010646;28;20952;-71
2023/10/16 03:57:55;;;;;;;8.10;5.43;;;3.70;86.30;;;;;;5011914;28;20420;-71
2023/10/16 04:00:27;;;;;;;9.50;3.90;;;3.70;86.50;;;;;;5014998;28;20436;-71
2023/10/16 04:02:59;;;;;;;4.40;3.00;;;3.80;86.50;;;;;;5010477;28;21099;-71
2023/10/16 04:05:45;;;;;;;5.77;3.00;;;3.80;85.70;;;;;;5005467;28;20465;-71
2023/10/16 04:08:13;;;;;;;5.07;2.70;;;3.60;84.60;;;;;;5013457;28;20964;-71
2023/10/16 04:10:43;;;;;;;5.60;3.00;;;3.50;84.70;;;;;;5015280;28;20427;-72
2023/10/16 04:13:09;;;;;;;5.93;3.03;;;3.40;84.90;;;;;;5006341;28;20597;-72
2023/10/16 04:15:59;;;;;;;6.77;3.30;;;3.40;85.30;;;;;;5008597;28;20476;-71
2023/10/16 04:31:44;;;;;;;6.10;3.60;;;3.40;85.90;;;;;;5007715;28;20433;-70
2023/10/16 04:37:29;;;;;;;9.57;4.20;;;3.30;85.90;;;;;;5007173;28;20248;-70
2023/10/16 05:22:05;;;;;;;7.50;4.88;;;3.20;86.50;;;;;;5013816;28;20190;-70
2023/10/16 06:14:10;;;;;;;13.30;5.47;;;3.40;85.20;;;;;;5012251;28;20854;-70
2023/10/16 06:16:38;;;;;;;13.20;5.57;;;3.30;85.20;;;;;;5010016;28;20483;-71
2023/10/16 06:19:14;;;;;;;10.30;5.70;;;3.40;85.30;;;;;;5012040;28;20428;-72
2023/10/16 06:21:49;;;;;;;8.93;5.30;;;3.40;85.30;;;;;;5017425;28;20435;-71
2023/10/16 06:24:25;;;;;;;13.60;5.90;;;3.30;85.50;;;;;;5013168;28;20447;-72
2023/10/16 06:26:56;;;;;;;10.63;5.87;;;3.30;85.60;;;;;;5011423;28;20983;-71
2023/10/16 06:29:25;;;;;;;11.17;6.30;;;3.30;85.60;;;;;;5015677;28;20908;-71
2023/10/16 06:31:58;;;;;;;12.50;6.20;;;3.50;85.70;;;;;;5020619;28;20468;-71
2023/10/16 06:34:24;;;;;;;10.87;5.77;;;3.50;85.70;;;;;;5014855;28;20473;-72
2023/10/16 06:36:51;;;;;;;16.20;7.47;;;3.60;85.70;;;;;;5007457;28;20472;-72
2023/10/16 06:39:28;;;;;;;15.63;5.63;;;3.70;85.70;;;;;;5012300;28;20189;-71
2023/10/16 06:41:55;;;;;;;9.67;6.03;;;3.70;85.30;;;;;;5011440;28;20424;-72
2023/10/16 06:44:28;;;;;;;12.27;6.80;;;3.80;85.00;;;;;;5010975;28;20425;-71
2023/10/16 06:46:58;;;;;;;8.47;5.63;;;3.80;84.70;;;;;;5005965;28;20460;-70
2023/10/16 06:49:26;;;;;;;10.87;5.90;;;3.80;84.60;;;;;;5011785;28;20946;-71
2023/10/16 06:51:57;;;;;;;10.00;6.30;;;4.00;84.70;;;;;;5012257;28;20456;-71
2023/10/16 06:54:25;;;;;;;12.97;5.70;;;4.00;84.60;;;;;;5013704;28;21400;-70
2023/10/16 06:56:52;;;;;;;11.70;6.10;;;4.00;84.60;;;;;;5004733;28;20555;-70
2023/10/16 06:59:17;;;;;;;10.87;5.30;;;4.20;84.60;;;;;;5010625;28;20916;-71
2023/10/16 07:01:47;;;;;;;10.03;5.93;;;4.30;84.30;;;;;;5011599;28;20515;-71
2023/10/16 07:04:16;;;;;;;11.23;6.20;;;4.30;83.70;;;;;;5010197;28;20190;-71
2023/10/16 07:06:44;;;;;;;11.67;6.03;;;4.30;83.40;;;;;;5005819;28;20477;-71
2023/10/16 07:09:12;;;;;;;13.30;7.73;;;4.30;83.60;;;;;;5019193;28;20441;-71
2023/10/16 07:11:42;;;;;;;12.30;6.13;;;4.30;83.60;;;;;;5010549;28;20428;-71
2023/10/16 07:14:12;;;;;;;13.53;7.37;;;4.20;83.70;;;;;;5010044;28;21127;-71
2023/10/16 07:16:38;;;;;;;12.87;7.50;;;4.30;84.10;;;;;;5005898;28;20483;-72
2023/10/16 07:19:07;;;;;;;13.00;7.20;;;4.40;84.10;;;;;;5010944;28;20433;-70
2023/10/16 07:21:32;;;;;;;13.57;6.40;;;4.40;84.30;;;;;;5009975;28;20508;-70
2023/10/16 07:23:58;;;;;;;13.10;6.67;;;4.50;84.30;;;;;;5010803;28;20592;-71
2023/10/16 07:26:26;;;;;;;14.50;7.53;;;4.60;84.10;;;;;;5002246;28;20220;-71
2023/10/16 07:28:51;;;;;;;12.83;7.70;;;4.70;84.10;;;;;;5010201;28;20212;-70
2023/10/16 07:31:18;;;;;;;15.03;7.13;;;4.80;83.80;;;;;;5010124;28;20464;-70
2023/10/16 07:33:50;;;;;;;14.47;7.83;;;4.90;83.70;;;;;;5009868;28;20209;-70
2023/10/16 07:36:17;;;;;;;13.10;7.90;;;5.00;83.60;;;;;;5008065;28;20989;-72
2023/10/16 07:38:44;;;;;;;12.90;6.90;;;5.10;83.60;;;;;;5010221;28;20871;-71
2023/10/16 07:41:18;;;;;;;15.77;7.00;;;5.20;83.40;;;;;;5011619;28;20959;-70
2023/10/16 07:43:46;;;;;;;14.50;7.73;;;5.30;83.10;;;;;;5010753;28;20503;-70
2023/10/16 07:48:40;;;;;;;14.40;8.13;;;5.50;82.20;;;;;;5010824;28;20445;-71
2023/10/16 07:51:07;;;;;;;16.33;7.90;;;5.60;81.90;;;;;;5013423;28;20520;-71
2023/10/16 07:53:36;;;;;;;18.83;7.47;;;5.70;81.70;;;;;;5009632;28;20838;-71
2023/10/16 07:56:03;;;;;;;14.63;7.47;;;5.70;81.40;;;;;;5005109;28;20812;-71
2023/10/16 07:58:47;;;;;;;13.30;7.80;;;5.70;80.90;;;;;;5003825;28;20922;-71
2023/10/16 08:03:41;;;;;;;11.67;7.20;;;5.70;81.10;;;;;;5011892;28;20494;-72
2023/10/16 08:06:12;;;;;;;11.50;6.90;;;5.80;80.90;;;;;;5007251;28;20213;-71
2023/10/16 08:08:38;;;;;;;12.00;7.27;;;5.90;80.80;;;;;;5010316;28;20516;-71
2023/10/16 08:11:18;;;;;;;12.90;7.67;;;5.90;80.50;;;;;;5010357;28;20749;-72
2023/10/16 08:13:46;;;;;;;11.73;7.40;;;6.00;80.20;;;;;;5013740;28;20475;-71
2023/10/16 08:16:19;;;;;;;11.80;7.20;;;5.90;80.30;;;;;;5006040;28;20560;-72
2023/10/16 08:18:48;;;;;;;11.07;7.00;;;6.00;80.50;;;;;;5013405;28;20413;-71
2023/10/16 08:21:25;;;;;;;12.37;6.80;;;6.10;80.80;;;;;;5012680;28;20428;-71
2023/10/16 08:23:55;;;;;;;11.10;7.10;;;6.20;80.60;;;;;;5010571;28;20933;-71
2023/10/16 08:26:41;;;;;;;14.40;6.53;;;6.40;79.90;;;;;;4999926;28;20483;-71
2023/10/16 08:29:51;;;;;;;12.07;6.70;;;6.50;79.30;;;;;;5006123;28;20425;-71
2023/10/16 08:34:43;;;;;;;11.80;7.50;;;6.80;78.60;;;;;;5007603;28;20432;-70
2023/10/16 08:37:11;;;;;;;10.33;7.37;;;6.90;77.80;;;;;;5005223;28;20969;-71
2023/10/16 08:39:37;;;;;;;11.57;7.50;;;7.00;77.40;;;;;;5010865;28;20273;-72
2023/10/16 08:42:12;;;;;;;11.03;6.33;;;7.10;77.00;;;;;;5009365;28;20577;-74
2023/10/16 08:44:40;;;;;;;14.37;6.30;;;7.10;76.80;;;;;;5009775;28;20571;-72
2023/10/16 08:49:33;;;;;;;17.53;6.73;;;7.30;76.50;;;;;;5011251;28;20189;-71
2023/10/16 08:52:06;;;;;;;10.93;7.50;;;7.40;76.10;;;;;;5010762;28;20409;-71
2023/10/16 08:57:19;;;;;;;12.57;7.50;;;7.40;75.50;;;;;;5006965;28;20531;-72
2023/10/16 08:59:47;;;;;;;15.80;8.00;;;7.40;75.90;;;;;;5009673;28;20870;-71
2023/10/16 09:02:17;;;;;;;12.93;7.00;;;7.50;75.50;;;;;;5011746;28;20468;-71
2023/10/16 09:04:44;;;;;;;13.83;7.00;;;7.60;75.70;;;;;;5009070;28;20479;-71
2023/10/16 09:07:16;;;;;;;12.13;6.90;;;7.80;75.10;;;;;;5004352;28;20514;-70
2023/10/16 09:09:48;;;;;;;11.57;7.20;;;7.90;74.80;;;;;;5009074;28;20488;-71
2023/10/16 09:12:24;;;;;;;14.70;7.40;;;7.90;74.20;;;;;;5009117;28;20431;-71
2023/10/16 09:14:50;;;;;;;14.83;7.17;;;8.00;74.20;;;;;;5009145;28;20443;-71
2023/10/16 09:17:19;;;;;;;12.40;7.90;;;8.10;73.90;;;;;;5004895;28;20853;-71
2023/10/16 09:19:48;;;;;;;16.47;8.10;;;8.20;73.60;;;;;;5009827;28;20425;-71
2023/10/16 09:22:15;;;;;;;13.80;7.30;;;8.30;73.50;;;;;;5009158;28;20937;-71
2023/10/16 09:24:45;;;;;;;12.40;7.70;;;8.30;73.00;;;;;;5009670;28;20515;-71
2023/10/16 09:27:45;;;;;;;11.50;7.57;;;8.30;73.00;;;;;;5004371;28;20456;-71
2023/10/16 09:30:14;;;;;;;11.40;6.83;;;8.30;72.70;;;;;;5015508;28;20433;-70
2023/10/16 09:32:40;;;;;;;9.70;6.80;;;8.40;72.90;;;;;;5011761;28;20463;-71
2023/10/16 09:35:16;;;;;;;13.40;7.70;;;8.40;72.60;;;;;;5011058;28;20439;-71
2023/10/16 09:37:47;;;;;;;23.23;7.53;;;8.50;72.60;;;;;;5011394;28;20944;-70
2023/10/16 09:40:19;;;;;;;11.20;7.00;;;8.60;72.40;;;;;;5012205;28;20807;-71
2023/10/16 09:43:08;;;;;;;13.60;7.00;;;8.70;72.10;;;;;;5011980;28;20429;-70
2023/10/16 09:45:35;;;;;;;12.87;7.17;;;8.80;71.80;;;;;;5005022;28;20489;-71
2023/10/16 09:48:07;;;;;;;12.67;6.40;;;8.80;71.70;;;;;;5010675;28;20486;-72
2023/10/16 09:50:37;;;;;;;13.23;6.67;;;8.90;71.40;;;;;;5008488;28;20487;-72
2023/10/16 09:53:05;;;;;;;12.63;6.53;;;8.90;71.00;;;;;;5017350;28;20892;-71
2023/10/16 09:55:38;;;;;;;12.93;6.43;;;8.90;71.10;;;;;;5011801;28;20824;-71
2023/10/16 09:58:06;;;;;;;10.23;5.63;;;9.00;71.00;;;;;;5014811;28;20452;-71
2023/10/16 10:00:32;;;;;;;15.90;7.03;;;9.00;71.00;;;;;;5014035;28;20475;-72
2023/10/16 10:03:05;;;;;;;12.17;6.20;;;9.10;70.50;;;;;;5013450;28;20509;-71
2023/10/16 10:11:38;;;;;;;12.57;6.40;;;9.10;71.00;;;;;;5010086;28;20837;-71
2023/10/16 10:16:51;;;;;;;9.60;5.27;;;9.30;70.50;;;;;;5013942;28;20463;-70
2023/10/16 10:19:24;;;;;;;8.03;5.00;;;9.50;69.70;;;;;;5016905;28;20436;-71
2023/10/16 10:21:56;;;;;;;8.20;5.17;;;9.90;68.80;;;;;;5014189;28;20857;-72
2023/10/16 10:24:23;;;;;;;8.60;4.87;;;10.20;67.60;;;;;;5014491;28;20452;-71
2023/10/16 10:26:49;;;;;;;9.93;5.27;;;10.50;67.00;;;;;;5009169;28;20464;-71
2023/10/16 10:29:16;;;;;;;6.70;4.80;;;10.90;66.90;;;;;;5014482;28;20417;-71
2023/10/16 10:31:45;;;;;;;7.67;4.77;;;11.00;66.10;;;;;;5012636;28;20512;-72
2023/10/16 10:34:27;;;;;;;6.63;3.60;;;11.20;66.40;;;;;;5012848;28;20472;-71
2023/10/16 10:36:53;;;;;;;6.93;4.37;;;11.70;66.00;;;;;;5013364;28;20465;-70
2023/10/16 10:39:22;;;;;;;8.13;4.50;;;12.10;65.60;;;;;;5013937;28;20425;-72
2023/10/16 10:41:48;;;;;;;6.47;3.97;;;12.30;65.40;;;;;;5013814;28;20439;-72
2023/10/16 10:44:15;;;;;;;6.10;4.10;;;12.50;65.30;;;;;;5013991;28;20427;-71
2023/10/16 10:46:49;;;;;;;7.83;4.40;;;12.90;64.50;;;;;;5008397;28;20520;-71
2023/10/16 10:49:16;;;;;;;7.27;3.80;;;13.30;63.70;;;;;;5012579;28;21452;-72
2023/10/16 10:51:47;;;;;;;7.63;3.97;;;13.80;62.30;;;;;;5011345;28;20426;-72
2023/10/16 10:54:13;;;;;;;4.57;3.50;;;13.90;60.60;;;;;;5009278;28;20486;-72
2023/10/16 10:56:48;;;;;;;7.87;3.90;;;14.00;61.00;;;;;;5000783;28;20458;-70
2023/10/16 10:59:32;;;;;;;4.07;2.90;;;14.00;60.30;;;;;;5015066;28;20569;-72
2023/10/16 11:02:09;;;;;;;6.13;3.20;;;13.90;59.30;;;;;;5011811;28;20431;-71
2023/10/16 11:04:34;;;;;;;9.30;3.27;;;13.70;59.60;;;;;;5008001;28;20725;-72
2023/10/16 11:07:11;;;;;;;4.57;2.53;;;14.00;59.60;;;;;;5008210;28;20532;-72
2023/10/16 11:09:39;;;;;;;3.37;2.13;;;14.10;57.00;;;;;;5007988;28;20194;-71
2023/10/16 11:12:08;;;;;;;3.80;2.10;;;14.00;56.60;;;;;;5008687;28;20565;-71
2023/10/16 11:14:38;;;;;;;3.23;1.70;;;13.80;56.60;;;;;;5009544;28;21021;-70
2023/10/16 11:17:07;;;;;;;5.17;2.87;;;13.90;56.50;;;;;;5008771;28;20559;-70
2023/10/16 11:19:49;;;;;;;5.67;2.87;;;13.80;57.30;;;;;;5011138;28;20417;-72
2023/10/16 11:22:19;;;;;;;5.10;2.67;;;13.60;58.90;;;;;;5012974;28;20937;-71
2023/10/16 11:24:46;;;;;;;7.70;3.40;;;13.80;57.70;;;;;;5009380;28;20449;-71
2023/10/16 11:27:13;;;;;;;3.00;2.10;;;13.90;57.00;;;;;;5008304;28;21042;-71
2023/10/16 11:29:40;;;;;;;3.83;2.23;;;14.00;56.10;;;;;;5010396;28;20429;-71
2023/10/16 11:32:06;;;;;;;3.10;1.90;;;14.00;56.00;;;;;;5010677;28;20484;-71
2023/10/16 11:34:46;;;;;;;6.73;2.27;;;14.00;55.60;;;;;;5010164;28;20518;-72
2023/10/16 11:37:13;;;;;;;5.33;2.30;;;14.10;56.00;;;;;;5005232;28;21027;-71
2023/10/16 11:39:39;;;;;;;3.47;2.70;;;13.90;56.60;;;;;;5001924;28;20427;-74
2023/10/16 11:42:05;;;;;;;2.60;2.27;;;14.00;56.80;;;;;;5011121;28;20425;-72
2023/10/16 11:44:37;;;;;;;4.87;3.73;;;14.10;56.10;;;;;;5009917;28;20431;-72
2023/10/16 11:47:07;;;;;;;4.27;2.20;;;14.30;56.40;;;;;;5005648;28;20473;-70
2023/10/16 11:49:39;;;;;;;3.43;2.33;;;14.30;56.00;;;;;;5009207;28;21005;-72
2023/10/16 11:52:22;;;;;;;4.20;2.07;;;14.30;55.60;;;;;;5009528;28;20437;-71
2023/10/16 11:54:58;;;;;;;2.93;2.13;;;14.40;54.50;;;;;;5006373;28;20896;-71
2023/10/16 11:57:27;;;;;;;3.50;2.20;;;14.30;55.30;;;;;;5000847;28;20432;-71
2023/10/16 11:59:53;;;;;;;3.07;2.13;;;14.30;55.20;;;;;;5010175;28;20438;-72
2023/10/16 12:02:20;;;;;;;2.93;2.40;;;14.30;55.60;;;;;;5009887;28;20915;-72
2023/10/16 12:04:47;;;;;;;5.33;2.47;;;14.60;55.60;;;;;;5009003;28;20423;-72
2023/10/16 12:07:13;;;;;;;3.50;2.50;;;14.70;54.90;;;;;;5004811;28;20468;-70
2023/10/16 12:09:48;;;;;;;2.47;2.03;;;14.60;54.40;;;;;;5010948;28;20439;-73
2023/10/16 12:12:20;;;;;;;5.10;2.50;;;14.50;55.00;;;;;;4995948;28;20429;-71
2023/10/16 12:14:50;;;;;;;5.97;2.13;;;14.50;55.70;;;;;;5008057;28;20428;-75
2023/10/16 12:17:20;;;;;;;3.10;2.17;;;14.30;55.60;;;;;;5004492;28;20462;-71
2023/10/16 12:19:46;;;;;;;4.17;2.17;;;14.30;56.10;;;;;;5009276;28;20410;-72
2023/10/16 12:22:15;;;;;;;3.97;2.50;;;14.30;56.10;;;;;;5010185;28;20427;-71
2023/10/16 12:24:43;;;;;;;2.87;2.30;;;14.40;55.60;;;;;;5011396;28;20465;-72
2023/10/16 12:27:09;;;;;;;2.90;2.17;;;14.50;55.30;;;;;;5005446;28;20454;-72
2023/10/16 12:29:35;;;;;;;3.50;2.03;;;14.10;55.70;;;;;;5009724;28;20846;-71
2023/10/16 12:32:03;;;;;;;3.80;2.20;;;14.30;56.40;;;;;;5012313;28;20188;-70
2023/10/16 12:34:32;;;;;;;4.23;2.30;;;14.40;55.80;;;;;;5009586;28;20550;-72
2023/10/16 12:37:00;;;;;;;4.63;2.40;;;14.10;56.80;;;;;;5007418;28;20551;-71
2023/10/16 12:39:26;;;;;;;4.90;2.90;;;14.20;57.20;;;;;;5010618;28;20491;-72
2023/10/16 12:41:56;;;;;;;3.33;2.03;;;14.40;56.40;;;;;;5008296;28;20801;-71
2023/10/16 12:44:24;;;;;;;6.30;2.70;;;14.60;55.80;;;;;;5009093;28;20420;-71
2023/10/16 12:46:52;;;;;;;3.90;2.63;;;14.70;55.00;;;;;;5007102;28;20969;-73
2023/10/16 12:49:17;;;;;;;3.43;2.50;;;14.70;55.60;;;;;;5010135;28;20892;-71
2023/10/16 12:51:43;;;;;;;3.70;2.67;;;14.90;54.90;;;;;;5011104;28;20420;-71
2023/10/16 12:54:12;;;;;;;6.93;3.10;;;15.30;54.40;;;;;;5009881;28;20580;-72
2023/10/16 12:56:43;;;;;;;3.50;2.40;;;15.60;52.40;;;;;;5003566;28;20241;-72
2023/10/16 12:59:09;;;;;;;7.27;2.53;;;15.30;52.40;;;;;;5013997;28;20498;-70
2023/10/16 13:01:36;;;;;;;8.90;2.57;;;15.30;53.60;;;;;;5007996;28;20477;-72
2023/10/16 13:04:06;;;;;;;5.10;2.60;;;15.70;52.50;;;;;;5017675;28;20477;-72
2023/10/16 13:06:32;;;;;;;4.87;2.53;;;15.10;53.20;;;;;;5006063;28;20440;-71
2023/10/16 13:09:00;;;;;;;6.00;2.47;;;15.20;53.60;;;;;;5015075;28;20424;-72
2023/10/16 13:11:27;;;;;;;3.30;2.67;;;15.10;53.20;;;;;;5015977;28;20495;-72
2023/10/16 13:13:55;;;;;;;4.43;2.60;;;15.00;53.80;;;;;;5013991;28;20468;-71
2023/10/16 13:16:24;;;;;;;5.20;3.20;;;14.90;52.80;;;;;;5009536;28;20488;-72
2023/10/16 13:18:57;;;;;;;4.10;2.80;;;14.60;53.20;;;;;;5014750;28;20413;-71
2023/10/16 13:21:33;;;;;;;3.90;2.57;;;14.70;53.70;;;;;;5010039;28;20439;-71
2023/10/16 13:24:09;;;;;;;3.27;2.10;;;14.40;54.00;;;;;;5007895;28;20470;-73
2023/10/16 13:26:36;;;;;;;4.40;2.17;;;14.50;53.40;;;;;;5004351;28;20470;-72
2023/10/16 13:29:07;;;;;;;4.77;2.50;;;14.70;52.40;;;;;;5013730;28;20796;-70
2023/10/16 13:31:34;;;;;;;3.60;2.40;;;14.80;51.80;;;;;;5012654;28;20434;-71
2023/10/16 13:34:02;;;;;;;4.47;2.60;;;14.70;51.30;;;;;;5012346;28;20825;-71
2023/10/16 13:36:35;;;;;;;3.03;1.93;;;14.60;52.10;;;;;;5007902;28;20465;-72
2023/10/16 13:39:02;;;;;;;5.93;2.80;;;14.80;51.80;;;;;;5013626;28;20488;-72
2023/10/16 13:41:28;;;;;;;3.60;2.10;;;14.70;52.60;;;;;;5013922;28;20528;-74
2023/10/16 13:43:55;;;;;;;4.57;2.63;;;14.50;53.00;;;;;;5016409;28;20878;-72
2023/10/16 13:46:20;;;;;;;4.90;2.70;;;14.30;53.60;;;;;;5009671;28;20883;-71
2023/10/16 13:48:47;;;;;;;5.03;2.50;;;14.40;53.40;;;;;;5013400;28;20433;-73
2023/10/16 13:51:16;;;;;;;3.33;2.67;;;14.30;53.20;;;;;;5017610;28;20594;-71
2023/10/16 13:53:42;;;;;;;4.20;2.60;;;14.40;53.20;;;;;;5012414;28;20469;-72
2023/10/16 13:56:11;;;;;;;7.00;2.20;;;14.40;52.60;;;;;;5009073;28;20473;-71
2023/10/16 13:58:36;;;;;;;2.37;1.80;;;14.50;52.50;;;;;;5016847;28;20862;-72
2023/10/16 14:01:02;;;;;;;2.50;1.90;;;14.40;51.80;;;;;;5013790;28;20505;-71
2023/10/16 14:03:28;;;;;;;3.27;1.80;;;14.30;51.20;;;;;;5014213;28;20259;-72
2023/10/16 14:05:54;;;;;;;5.30;2.37;;;14.20;51.40;;;;;;5008122;28;20211;-71
2023/10/16 14:08:30;;;;;;;3.03;1.77;;;14.10;51.70;;;;;;5013797;28;20182;-72
2023/10/16 14:11:00;;;;;;;6.20;2.30;;;14.00;53.80;;;;;;5013387;28;20418;-72
2023/10/16 14:13:32;;;;;;;3.27;2.43;;;14.10;54.20;;;;;;5018203;28;20980;-71
2023/10/16 14:16:10;;;;;;;4.60;1.90;;;14.20;52.90;;;;;;5004525;28;20457;-71
2023/10/16 14:18:35;;;;;;;4.00;2.17;;;14.20;53.00;;;;;;5008467;28;20876;-70
2023/10/16 14:21:08;;;;;;;3.73;2.30;;;14.30;53.60;;;;;;5012610;28;20425;-70
2023/10/16 14:23:34;;;;;;;6.33;2.17;;;14.40;51.80;;;;;;5017572;28;20209;-70
2023/10/16 14:26:00;;;;;;;4.00;2.20;;;14.40;51.20;;;;;;5014032;28;20466;-71
2023/10/16 14:30:55;;;;;;;2.60;1.60;;;14.00;54.10;;;;;;5008831;28;20558;-72
2023/10/16 14:33:31;;;;;;;3.70;1.70;;;14.20;53.20;;;;;;5013820;28;20474;-72
2023/10/16 14:36:02;;;;;;;2.30;1.73;;;14.40;52.90;;;;;;5007898;28;20471;-72
2023/10/16 14:38:28;;;;;;;5.60;1.70;;;14.60;52.00;;;;;;5012392;28;20434;-70
2023/10/16 14:40:55;;;;;;;4.50;1.80;;;14.80;50.20;;;;;;5011517;28;20433;-70
2023/10/16 14:43:22;;;;;;;3.70;1.67;;;14.70;50.10;;;;;;5017754;28;20517;-69
2023/10/16 14:45:48;;;;;;;3.10;1.77;;;14.70;50.10;;;;;;5008414;28;20569;-70
2023/10/16 14:48:18;;;;;;;3.10;1.70;;;14.50;50.60;;;;;;5014873;28;20421;-70
2023/10/16 14:50:47;;;;;;;3.10;2.00;;;14.40;51.70;;;;;;5019054;28;20429;-72
2023/10/16 14:53:12;;;;;;;2.60;1.80;;;14.40;51.00;;;;;;5015419;28;20470;-71
2023/10/16 14:55:39;;;;;;;2.17;1.80;;;14.30;51.00;;;;;;5006805;28;20563;-72
2023/10/16 14:58:08;;;;;;;2.33;1.67;;;14.10;51.40;;;;;;5011198;28;20270;-71
2023/10/16 15:00:41;;;;;;;3.67;2.13;;;13.90;52.40;;;;;;5016739;28;21331;-72
2023/10/16 15:03:16;;;;;;;3.30;2.20;;;13.90;52.60;;;;;;5011793;28;20848;-72
2023/10/16 15:05:43;;;;;;;4.30;2.40;;;13.80;52.40;;;;;;5007798;28;21011;-71
2023/10/16 15:08:13;;;;;;;4.63;2.40;;;13.60;52.90;;;;;;5011401;28;20537;-73
2023/10/16 15:10:43;;;;;;;4.20;2.27;;;13.70;53.20;;;;;;5012198;28;20422;-71
2023/10/16 15:13:14;;;;;;;3.80;2.23;;;13.80;52.90;;;;;;5012727;28;20468;-70
2023/10/16 15:15:46;;;;;;;4.70;1.90;;;14.00;52.40;;;;;;5009619;28;20917;-71